sensor_id;sensor_type;location;lat;lon;timestamp;P1;durP1;ratioP1;P2;durP2;ratioP2
76814;SDS011;65768;49.906;19.384;2023-08-06T00:02:08;16.50;;;10.70;;
76814;SDS011;65768;49.906;19.384;2023-08-06T00:04:37;20.20;;;11.30;;
76814;SDS011;65768;49.906;19.384;2023-08-06T00:07:06;21.80;;;11.80;;
76814;SDS011;65768;49.906;19.384;2023-08-06T00:09:38;46.50;;;15.30;;
76814;SDS011;65768;49.906;19.384;2023-08-06T00:12:07;18.40;;;11.60;;
76814;SDS011;65768;49.906;19.384;2023-08-06T00:14:37;20.00;;;11.10;;
76814;SDS011;65768;49.906;19.384;2023-08-06T00:17:05;17.30;;;11.20;;
76814;SDS011;65768;49.906;19.384;2023-08-06T00:19:33;21.00;;;12.30;;
76814;SDS011;65768;49.906;19.384;2023-08-06T00:22:02;17.30;;;10.40;;
76814;SDS011;65768;49.906;19.384;2023-08-06T00:24:31;22.70;;;12.50;;
76814;SDS011;65768;49.906;19.384;2023-08-06T00:27:01;17.60;;;10.60;;
76814;SDS011;65768;49.906;19.384;2023-08-06T00:29:30;23.90;;;12.40;;
76814;SDS011;65768;49.906;19.384;2023-08-06T00:31:59;22.00;;;11.40;;
76814;SDS011;65768;49.906;19.384;2023-08-06T00:34:29;18.30;;;9.80;;
76814;SDS011;65768;49.906;19.384;2023-08-06T00:36:57;23.40;;;12.20;;
76814;SDS011;65768;49.906;19.384;2023-08-06T00:39:28;25.00;;;13.70;;
76814;SDS011;65768;49.906;19.384;2023-08-06T00:41:56;23.40;;;12.50;;
76814;SDS011;65768;49.906;19.384;2023-08-06T00:44:30;26.30;;;12.70;;
76814;SDS011;65768;49.906;19.384;2023-08-06T00:46:59;27.50;;;13.40;;
76814;SDS011;65768;49.906;19.384;2023-08-06T00:49:28;28.00;;;13.90;;
76814;SDS011;65768;49.906;19.384;2023-08-06T00:51:57;28.20;;;13.60;;
76814;SDS011;65768;49.906;19.384;2023-08-06T00:54:27;31.90;;;13.30;;
76814;SDS011;65768;49.906;19.384;2023-08-06T00:56:56;21.10;;;10.50;;
76814;SDS011;65768;49.906;19.384;2023-08-06T00:59:25;24.50;;;12.10;;
76814;SDS011;65768;49.906;19.384;2023-08-06T01:01:54;27.20;;;11.60;;
76814;SDS011;65768;49.906;19.384;2023-08-06T01:04:25;38.30;;;14.80;;
76814;SDS011;65768;49.906;19.384;2023-08-06T01:07:17;34.80;;;14.40;;
76814;SDS011;65768;49.906;19.384;2023-08-06T01:10:16;42.90;;;15.30;;
76814;SDS011;65768;49.906;19.384;2023-08-06T01:13:31;37.20;;;14.90;;
76814;SDS011;65768;49.906;19.384;2023-08-06T01:16:09;40.20;;;13.20;;
76814;SDS011;65768;49.906;19.384;2023-08-06T01:18:42;69.60;;;16.40;;
76814;SDS011;65768;49.906;19.384;2023-08-06T01:21:16;45.40;;;14.20;;
76814;SDS011;65768;49.906;19.384;2023-08-06T01:23:46;39.90;;;13.70;;
76814;SDS011;65768;49.906;19.384;2023-08-06T01:29:36;45.40;;;15.00;;
76814;SDS011;65768;49.906;19.384;2023-08-06T01:32:08;38.00;;;12.50;;
76814;SDS011;65768;49.906;19.384;2023-08-06T01:34:41;31.00;;;12.70;;
76814;SDS011;65768;49.906;19.384;2023-08-06T01:37:13;33.10;;;12.70;;
76814;SDS011;65768;49.906;19.384;2023-08-06T01:39:43;29.50;;;13.50;;
76814;SDS011;65768;49.906;19.384;2023-08-06T01:42:13;34.30;;;13.80;;
76814;SDS011;65768;49.906;19.384;2023-08-06T01:44:42;44.40;;;15.80;;
76814;SDS011;65768;49.906;19.384;2023-08-06T01:47:11;27.30;;;11.40;;
76814;SDS011;65768;49.906;19.384;2023-08-06T01:49:40;26.40;;;12.40;;
76814;SDS011;65768;49.906;19.384;2023-08-06T01:52:09;32.50;;;13.70;;
76814;SDS011;65768;49.906;19.384;2023-08-06T01:54:37;54.20;;;15.30;;
76814;SDS011;65768;49.906;19.384;2023-08-06T01:57:05;29.30;;;11.10;;
76814;SDS011;65768;49.906;19.384;2023-08-06T01:59:34;26.80;;;12.00;;
76814;SDS011;65768;49.906;19.384;2023-08-06T02:02:03;34.10;;;13.40;;
76814;SDS011;65768;49.906;19.384;2023-08-06T02:04:32;25.50;;;11.10;;
76814;SDS011;65768;49.906;19.384;2023-08-06T02:07:03;32.80;;;13.60;;
76814;SDS011;65768;49.906;19.384;2023-08-06T02:09:32;35.20;;;13.40;;
76814;SDS011;65768;49.906;19.384;2023-08-06T02:12:01;33.00;;;12.00;;
76814;SDS011;65768;49.906;19.384;2023-08-06T02:14:30;29.80;;;12.30;;
76814;SDS011;65768;49.906;19.384;2023-08-06T02:16:59;30.80;;;11.80;;
76814;SDS011;65768;49.906;19.384;2023-08-06T02:19:29;38.20;;;14.80;;
76814;SDS011;65768;49.906;19.384;2023-08-06T02:21:58;42.40;;;14.50;;
76814;SDS011;65768;49.906;19.384;2023-08-06T02:24:27;28.90;;;12.90;;
76814;SDS011;65768;49.906;19.384;2023-08-06T02:26:56;30.70;;;13.00;;
76814;SDS011;65768;49.906;19.384;2023-08-06T02:29:25;29.40;;;12.80;;
76814;SDS011;65768;49.906;19.384;2023-08-06T02:31:53;33.70;;;14.00;;
76814;SDS011;65768;49.906;19.384;2023-08-06T02:34:22;35.30;;;13.90;;
76814;SDS011;65768;49.906;19.384;2023-08-06T02:36:51;41.20;;;15.10;;
76814;SDS011;65768;49.906;19.384;2023-08-06T02:39:20;33.40;;;14.20;;
76814;SDS011;65768;49.906;19.384;2023-08-06T02:41:50;36.20;;;14.40;;
76814;SDS011;65768;49.906;19.384;2023-08-06T02:44:19;35.90;;;13.90;;
76814;SDS011;65768;49.906;19.384;2023-08-06T02:46:47;34.40;;;14.10;;
76814;SDS011;65768;49.906;19.384;2023-08-06T02:49:17;30.60;;;13.30;;
76814;SDS011;65768;49.906;19.384;2023-08-06T02:51:46;52.80;;;14.80;;
76814;SDS011;65768;49.906;19.384;2023-08-06T02:54:16;31.60;;;13.50;;
76814;SDS011;65768;49.906;19.384;2023-08-06T02:56:44;25.10;;;12.90;;
76814;SDS011;65768;49.906;19.384;2023-08-06T02:59:14;28.60;;;13.40;;
76814;SDS011;65768;49.906;19.384;2023-08-06T03:01:44;32.20;;;12.90;;
76814;SDS011;65768;49.906;19.384;2023-08-06T03:04:12;31.70;;;12.80;;
76814;SDS011;65768;49.906;19.384;2023-08-06T03:06:43;36.20;;;13.50;;
76814;SDS011;65768;49.906;19.384;2023-08-06T03:09:12;28.60;;;11.50;;
76814;SDS011;65768;49.906;19.384;2023-08-06T03:11:41;38.80;;;15.50;;
76814;SDS011;65768;49.906;19.384;2023-08-06T03:14:09;34.80;;;15.00;;
76814;SDS011;65768;49.906;19.384;2023-08-06T03:16:38;39.00;;;14.70;;
76814;SDS011;65768;49.906;19.384;2023-08-06T03:19:07;47.60;;;16.30;;
76814;SDS011;65768;49.906;19.384;2023-08-06T03:21:36;50.10;;;16.00;;
76814;SDS011;65768;49.906;19.384;2023-08-06T03:24:05;38.40;;;15.30;;
76814;SDS011;65768;49.906;19.384;2023-08-06T03:26:33;41.40;;;16.00;;
76814;SDS011;65768;49.906;19.384;2023-08-06T03:29:02;44.00;;;16.30;;
76814;SDS011;65768;49.906;19.384;2023-08-06T03:31:30;44.00;;;16.10;;
76814;SDS011;65768;49.906;19.384;2023-08-06T03:33:59;45.20;;;15.70;;
76814;SDS011;65768;49.906;19.384;2023-08-06T03:36:28;43.90;;;16.80;;
76814;SDS011;65768;49.906;19.384;2023-08-06T03:38:56;42.10;;;15.10;;
76814;SDS011;65768;49.906;19.384;2023-08-06T03:41:25;48.90;;;17.20;;
76814;SDS011;65768;49.906;19.384;2023-08-06T03:43:53;54.20;;;21.20;;
76814;SDS011;65768;49.906;19.384;2023-08-06T03:46:22;55.20;;;19.10;;
76814;SDS011;65768;49.906;19.384;2023-08-06T03:48:50;65.70;;;20.90;;
76814;SDS011;65768;49.906;19.384;2023-08-06T03:51:20;54.60;;;20.50;;
76814;SDS011;65768;49.906;19.384;2023-08-06T03:53:49;54.30;;;20.40;;
76814;SDS011;65768;49.906;19.384;2023-08-06T03:56:17;44.60;;;16.60;;
76814;SDS011;65768;49.906;19.384;2023-08-06T03:58:46;55.10;;;20.00;;
76814;SDS011;65768;49.906;19.384;2023-08-06T04:01:16;49.90;;;18.30;;
76814;SDS011;65768;49.906;19.384;2023-08-06T04:03:46;43.20;;;17.80;;
76814;SDS011;65768;49.906;19.384;2023-08-06T04:06:15;49.60;;;18.70;;
76814;SDS011;65768;49.906;19.384;2023-08-06T04:08:44;51.00;;;18.90;;
76814;SDS011;65768;49.906;19.384;2023-08-06T04:11:12;51.90;;;20.00;;
76814;SDS011;65768;49.906;19.384;2023-08-06T04:13:44;53.00;;;20.00;;
76814;SDS011;65768;49.906;19.384;2023-08-06T04:16:15;37.60;;;17.50;;
76814;SDS011;65768;49.906;19.384;2023-08-06T04:18:44;36.80;;;16.60;;
76814;SDS011;65768;49.906;19.384;2023-08-06T04:21:15;43.70;;;17.60;;
76814;SDS011;65768;49.906;19.384;2023-08-06T04:23:44;33.50;;;13.80;;
76814;SDS011;65768;49.906;19.384;2023-08-06T04:26:13;29.50;;;15.90;;
76814;SDS011;65768;49.906;19.384;2023-08-06T04:28:42;36.50;;;16.20;;
76814;SDS011;65768;49.906;19.384;2023-08-06T04:31:11;36.10;;;16.20;;
76814;SDS011;65768;49.906;19.384;2023-08-06T04:33:40;31.90;;;13.30;;
76814;SDS011;65768;49.906;19.384;2023-08-06T04:36:08;37.50;;;16.70;;
76814;SDS011;65768;49.906;19.384;2023-08-06T04:38:38;30.90;;;15.40;;
76814;SDS011;65768;49.906;19.384;2023-08-06T04:41:10;34.50;;;16.60;;
76814;SDS011;65768;49.906;19.384;2023-08-06T04:43:39;29.60;;;14.60;;
76814;SDS011;65768;49.906;19.384;2023-08-06T04:46:09;27.00;;;12.30;;
76814;SDS011;65768;49.906;19.384;2023-08-06T04:48:39;33.00;;;13.70;;
76814;SDS011;65768;49.906;19.384;2023-08-06T04:51:08;26.70;;;13.10;;
76814;SDS011;65768;49.906;19.384;2023-08-06T04:53:38;28.00;;;13.60;;
76814;SDS011;65768;49.906;19.384;2023-08-06T04:56:07;19.90;;;10.70;;
76814;SDS011;65768;49.906;19.384;2023-08-06T04:58:37;25.50;;;11.70;;
76814;SDS011;65768;49.906;19.384;2023-08-06T05:01:05;18.10;;;9.10;;
76814;SDS011;65768;49.906;19.384;2023-08-06T05:03:35;17.30;;;8.50;;
76814;SDS011;65768;49.906;19.384;2023-08-06T05:06:04;14.20;;;7.60;;
76814;SDS011;65768;49.906;19.384;2023-08-06T05:08:34;12.30;;;6.40;;
76814;SDS011;65768;49.906;19.384;2023-08-06T05:11:02;10.00;;;6.10;;
76814;SDS011;65768;49.906;19.384;2023-08-06T05:13:31;11.50;;;5.70;;
76814;SDS011;65768;49.906;19.384;2023-08-06T05:16:00;8.80;;;4.60;;
76814;SDS011;65768;49.906;19.384;2023-08-06T05:18:30;8.30;;;4.50;;
76814;SDS011;65768;49.906;19.384;2023-08-06T05:20:59;7.80;;;4.60;;
76814;SDS011;65768;49.906;19.384;2023-08-06T05:23:28;9.10;;;5.30;;
76814;SDS011;65768;49.906;19.384;2023-08-06T05:25:57;9.00;;;4.80;;
76814;SDS011;65768;49.906;19.384;2023-08-06T05:28:25;9.00;;;4.60;;
76814;SDS011;65768;49.906;19.384;2023-08-06T05:30:54;5.10;;;3.00;;
76814;SDS011;65768;49.906;19.384;2023-08-06T05:33:22;5.70;;;3.60;;
76814;SDS011;65768;49.906;19.384;2023-08-06T05:35:51;5.70;;;4.00;;
76814;SDS011;65768;49.906;19.384;2023-08-06T05:38:20;4.30;;;2.40;;
76814;SDS011;65768;49.906;19.384;2023-08-06T05:40:48;4.00;;;2.30;;
76814;SDS011;65768;49.906;19.384;2023-08-06T05:43:17;4.40;;;2.80;;
76814;SDS011;65768;49.906;19.384;2023-08-06T05:45:46;3.60;;;2.30;;
76814;SDS011;65768;49.906;19.384;2023-08-06T05:48:18;3.00;;;1.60;;
76814;SDS011;65768;49.906;19.384;2023-08-06T05:50:48;3.80;;;2.40;;
76814;SDS011;65768;49.906;19.384;2023-08-06T05:53:18;4.10;;;2.20;;
76814;SDS011;65768;49.906;19.384;2023-08-06T05:55:47;2.80;;;1.90;;
76814;SDS011;65768;49.906;19.384;2023-08-06T05:58:17;3.40;;;2.00;;
76814;SDS011;65768;49.906;19.384;2023-08-06T06:00:47;2.60;;;1.80;;
76814;SDS011;65768;49.906;19.384;2023-08-06T06:07:03;2.20;;;1.00;;
76814;SDS011;65768;49.906;19.384;2023-08-06T06:09:34;3.40;;;1.10;;
76814;SDS011;65768;49.906;19.384;2023-08-06T06:12:03;2.50;;;1.30;;
76814;SDS011;65768;49.906;19.384;2023-08-06T06:14:33;2.80;;;1.00;;
76814;SDS011;65768;49.906;19.384;2023-08-06T06:17:03;10.30;;;1.20;;
76814;SDS011;65768;49.906;19.384;2023-08-06T06:19:31;2.70;;;1.10;;
76814;SDS011;65768;49.906;19.384;2023-08-06T06:22:02;3.00;;;1.20;;
76814;SDS011;65768;49.906;19.384;2023-08-06T06:24:31;1.40;;;0.90;;
76814;SDS011;65768;49.906;19.384;2023-08-06T06:26:59;2.10;;;0.90;;
76814;SDS011;65768;49.906;19.384;2023-08-06T06:29:30;1.10;;;0.60;;
76814;SDS011;65768;49.906;19.384;2023-08-06T06:35:49;2.20;;;0.70;;
76814;SDS011;65768;49.906;19.384;2023-08-06T06:38:17;1.10;;;0.50;;
76814;SDS011;65768;49.906;19.384;2023-08-06T06:44:47;0.90;;;0.30;;
76814;SDS011;65768;49.906;19.384;2023-08-06T06:47:18;0.40;;;0.20;;
76814;SDS011;65768;49.906;19.384;2023-08-06T06:53:47;4.30;;;2.10;;
76814;SDS011;65768;49.906;19.384;2023-08-06T06:59:51;3.70;;;2.60;;
76814;SDS011;65768;49.906;19.384;2023-08-06T07:02:20;7.50;;;5.40;;
76814;SDS011;65768;49.906;19.384;2023-08-06T07:04:50;4.10;;;2.80;;
76814;SDS011;65768;49.906;19.384;2023-08-06T07:07:21;4.80;;;3.90;;
76814;SDS011;65768;49.906;19.384;2023-08-06T07:09:50;5.50;;;4.50;;
76814;SDS011;65768;49.906;19.384;2023-08-06T07:12:20;8.20;;;3.90;;
76814;SDS011;65768;49.906;19.384;2023-08-06T07:14:50;4.70;;;2.20;;
76814;SDS011;65768;49.906;19.384;2023-08-06T07:17:20;2.30;;;1.30;;
76814;SDS011;65768;49.906;19.384;2023-08-06T07:19:52;5.80;;;2.90;;
76814;SDS011;65768;49.906;19.384;2023-08-06T07:22:22;2.50;;;1.10;;
76814;SDS011;65768;49.906;19.384;2023-08-06T07:24:52;9.90;;;3.00;;
76814;SDS011;65768;49.906;19.384;2023-08-06T07:27:23;6.40;;;1.90;;
76814;SDS011;65768;49.906;19.384;2023-08-06T07:29:53;2.30;;;0.90;;
76814;SDS011;65768;49.906;19.384;2023-08-06T07:32:22;1.00;;;0.40;;
76814;SDS011;65768;49.906;19.384;2023-08-06T07:34:53;1.50;;;0.80;;
76814;SDS011;65768;49.906;19.384;2023-08-06T07:37:28;1.70;;;0.90;;
76814;SDS011;65768;49.906;19.384;2023-08-06T07:39:56;1.50;;;0.50;;
76814;SDS011;65768;49.906;19.384;2023-08-06T07:42:26;1.30;;;0.70;;
76814;SDS011;65768;49.906;19.384;2023-08-06T07:44:55;1.30;;;0.70;;
76814;SDS011;65768;49.906;19.384;2023-08-06T07:47:26;3.20;;;1.20;;
76814;SDS011;65768;49.906;19.384;2023-08-06T07:49:55;1.60;;;0.80;;
76814;SDS011;65768;49.906;19.384;2023-08-06T07:52:25;1.50;;;0.70;;
76814;SDS011;65768;49.906;19.384;2023-08-06T07:54:54;1.10;;;0.50;;
76814;SDS011;65768;49.906;19.384;2023-08-06T07:57:23;2.20;;;0.70;;
76814;SDS011;65768;49.906;19.384;2023-08-06T07:59:53;1.90;;;0.90;;
76814;SDS011;65768;49.906;19.384;2023-08-06T08:02:23;1.70;;;0.70;;
76814;SDS011;65768;49.906;19.384;2023-08-06T08:04:54;1.40;;;0.70;;
76814;SDS011;65768;49.906;19.384;2023-08-06T08:07:24;1.30;;;0.50;;
76814;SDS011;65768;49.906;19.384;2023-08-06T08:09:56;0.80;;;0.40;;
76814;SDS011;65768;49.906;19.384;2023-08-06T08:12:25;1.20;;;0.60;;
76814;SDS011;65768;49.906;19.384;2023-08-06T08:15:04;1.90;;;0.60;;
76814;SDS011;65768;49.906;19.384;2023-08-06T08:17:33;1.40;;;0.50;;
76814;SDS011;65768;49.906;19.384;2023-08-06T08:20:02;1.10;;;0.40;;
76814;SDS011;65768;49.906;19.384;2023-08-06T08:22:33;1.70;;;0.60;;
76814;SDS011;65768;49.906;19.384;2023-08-06T08:25:02;1.60;;;0.60;;
76814;SDS011;65768;49.906;19.384;2023-08-06T08:27:36;1.90;;;0.70;;
76814;SDS011;65768;49.906;19.384;2023-08-06T08:30:05;1.20;;;0.50;;
76814;SDS011;65768;49.906;19.384;2023-08-06T08:32:38;1.10;;;0.50;;
76814;SDS011;65768;49.906;19.384;2023-08-06T08:35:06;0.50;;;0.20;;
76814;SDS011;65768;49.906;19.384;2023-08-06T08:37:38;1.00;;;0.40;;
76814;SDS011;65768;49.906;19.384;2023-08-06T08:40:09;0.60;;;0.30;;
76814;SDS011;65768;49.906;19.384;2023-08-06T08:42:40;0.60;;;0.40;;
76814;SDS011;65768;49.906;19.384;2023-08-06T08:45:13;0.80;;;0.30;;
76814;SDS011;65768;49.906;19.384;2023-08-06T08:47:44;0.40;;;0.30;;
76814;SDS011;65768;49.906;19.384;2023-08-06T08:50:16;0.50;;;0.30;;
76814;SDS011;65768;49.906;19.384;2023-08-06T08:52:48;0.90;;;0.50;;
76814;SDS011;65768;49.906;19.384;2023-08-06T08:55:25;0.60;;;0.30;;
76814;SDS011;65768;49.906;19.384;2023-08-06T08:58:01;0.90;;;0.40;;
76814;SDS011;65768;49.906;19.384;2023-08-06T09:00:30;1.20;;;0.50;;
76814;SDS011;65768;49.906;19.384;2023-08-06T09:03:01;1.40;;;0.60;;
76814;SDS011;65768;49.906;19.384;2023-08-06T09:05:37;0.80;;;0.40;;
76814;SDS011;65768;49.906;19.384;2023-08-06T09:08:15;1.10;;;0.30;;
76814;SDS011;65768;49.906;19.384;2023-08-06T09:10:49;0.70;;;0.30;;
76814;SDS011;65768;49.906;19.384;2023-08-06T09:13:23;1.50;;;0.50;;
76814;SDS011;65768;49.906;19.384;2023-08-06T09:15:52;0.60;;;0.40;;
76814;SDS011;65768;49.906;19.384;2023-08-06T09:18:26;0.70;;;0.40;;
76814;SDS011;65768;49.906;19.384;2023-08-06T09:20:58;0.80;;;0.50;;
76814;SDS011;65768;49.906;19.384;2023-08-06T09:23:28;1.30;;;0.50;;
76814;SDS011;65768;49.906;19.384;2023-08-06T09:26:02;1.00;;;0.40;;
76814;SDS011;65768;49.906;19.384;2023-08-06T09:28:36;0.70;;;0.30;;
76814;SDS011;65768;49.906;19.384;2023-08-06T09:31:08;0.70;;;0.50;;
76814;SDS011;65768;49.906;19.384;2023-08-06T09:33:39;1.40;;;0.70;;
76814;SDS011;65768;49.906;19.384;2023-08-06T09:36:10;1.10;;;0.60;;
76814;SDS011;65768;49.906;19.384;2023-08-06T09:38:40;1.40;;;0.60;;
76814;SDS011;65768;49.906;19.384;2023-08-06T09:41:11;0.90;;;0.50;;
76814;SDS011;65768;49.906;19.384;2023-08-06T09:43:56;1.10;;;0.50;;
76814;SDS011;65768;49.906;19.384;2023-08-06T09:46:25;1.80;;;0.70;;
76814;SDS011;65768;49.906;19.384;2023-08-06T09:48:59;1.20;;;0.50;;
76814;SDS011;65768;49.906;19.384;2023-08-06T09:51:29;1.40;;;0.50;;
76814;SDS011;65768;49.906;19.384;2023-08-06T09:53:58;0.90;;;0.40;;
76814;SDS011;65768;49.906;19.384;2023-08-06T09:56:29;3.30;;;0.70;;
76814;SDS011;65768;49.906;19.384;2023-08-06T09:59:05;0.80;;;0.40;;
76814;SDS011;65768;49.906;19.384;2023-08-06T10:01:37;3.00;;;0.70;;
76814;SDS011;65768;49.906;19.384;2023-08-06T10:04:06;1.20;;;0.60;;
76814;SDS011;65768;49.906;19.384;2023-08-06T10:06:40;1.40;;;0.80;;
76814;SDS011;65768;49.906;19.384;2023-08-06T10:09:11;3.10;;;0.70;;
76814;SDS011;65768;49.906;19.384;2023-08-06T10:11:42;1.50;;;1.00;;
76814;SDS011;65768;49.906;19.384;2023-08-06T10:14:18;1.70;;;0.80;;
76814;SDS011;65768;49.906;19.384;2023-08-06T10:17:02;1.20;;;0.70;;
76814;SDS011;65768;49.906;19.384;2023-08-06T10:19:31;1.60;;;0.60;;
76814;SDS011;65768;49.906;19.384;2023-08-06T10:22:08;2.10;;;0.50;;
76814;SDS011;65768;49.906;19.384;2023-08-06T10:30:42;1.30;;;0.70;;
76814;SDS011;65768;49.906;19.384;2023-08-06T10:33:14;1.50;;;0.50;;
76814;SDS011;65768;49.906;19.384;2023-08-06T10:35:46;1.00;;;0.60;;
76814;SDS011;65768;49.906;19.384;2023-08-06T10:38:21;0.80;;;0.40;;
76814;SDS011;65768;49.906;19.384;2023-08-06T10:41:03;0.30;;;0.20;;
76814;SDS011;65768;49.906;19.384;2023-08-06T10:43:35;0.60;;;0.40;;
76814;SDS011;65768;49.906;19.384;2023-08-06T10:46:21;0.60;;;0.40;;
76814;SDS011;65768;49.906;19.384;2023-08-06T10:48:57;0.80;;;0.30;;
76814;SDS011;65768;49.906;19.384;2023-08-06T10:51:29;2.10;;;0.50;;
76814;SDS011;65768;49.906;19.384;2023-08-06T10:53:59;0.70;;;0.50;;
76814;SDS011;65768;49.906;19.384;2023-08-06T10:56:29;0.80;;;0.50;;
76814;SDS011;65768;49.906;19.384;2023-08-06T10:58:57;1.40;;;0.50;;
76814;SDS011;65768;49.906;19.384;2023-08-06T11:01:30;1.00;;;0.50;;
76814;SDS011;65768;49.906;19.384;2023-08-06T11:04:05;0.80;;;0.40;;
76814;SDS011;65768;49.906;19.384;2023-08-06T11:06:34;1.50;;;0.40;;
76814;SDS011;65768;49.906;19.384;2023-08-06T11:09:04;0.80;;;0.30;;
76814;SDS011;65768;49.906;19.384;2023-08-06T11:11:33;0.90;;;0.40;;
76814;SDS011;65768;49.906;19.384;2023-08-06T11:14:05;1.80;;;0.50;;
76814;SDS011;65768;49.906;19.384;2023-08-06T11:16:34;1.60;;;0.60;;
76814;SDS011;65768;49.906;19.384;2023-08-06T11:19:03;0.90;;;0.40;;
76814;SDS011;65768;49.906;19.384;2023-08-06T11:21:33;0.80;;;0.40;;
76814;SDS011;65768;49.906;19.384;2023-08-06T11:24:04;0.70;;;0.40;;
76814;SDS011;65768;49.906;19.384;2023-08-06T11:26:34;1.00;;;0.40;;
76814;SDS011;65768;49.906;19.384;2023-08-06T11:29:09;0.70;;;0.40;;
76814;SDS011;65768;49.906;19.384;2023-08-06T11:31:38;0.70;;;0.40;;
76814;SDS011;65768;49.906;19.384;2023-08-06T11:34:07;0.80;;;0.30;;
76814;SDS011;65768;49.906;19.384;2023-08-06T11:36:40;0.60;;;0.40;;
76814;SDS011;65768;49.906;19.384;2023-08-06T11:39:10;0.60;;;0.40;;
76814;SDS011;65768;49.906;19.384;2023-08-06T11:41:41;0.90;;;0.30;;
76814;SDS011;65768;49.906;19.384;2023-08-06T11:44:11;0.40;;;0.20;;
76814;SDS011;65768;49.906;19.384;2023-08-06T11:46:54;1.90;;;0.50;;
76814;SDS011;65768;49.906;19.384;2023-08-06T11:52:38;0.30;;;0.20;;
76814;SDS011;65768;49.906;19.384;2023-08-06T11:55:09;0.20;;;0.20;;
76814;SDS011;65768;49.906;19.384;2023-08-06T11:57:43;0.60;;;0.30;;
76814;SDS011;65768;49.906;19.384;2023-08-06T12:00:14;0.50;;;0.10;;
76814;SDS011;65768;49.906;19.384;2023-08-06T12:02:46;0.80;;;0.30;;
76814;SDS011;65768;49.906;19.384;2023-08-06T12:05:19;0.30;;;0.20;;
76814;SDS011;65768;49.906;19.384;2023-08-06T12:07:56;0.40;;;0.20;;
76814;SDS011;65768;49.906;19.384;2023-08-06T12:10:26;0.80;;;0.30;;
76814;SDS011;65768;49.906;19.384;2023-08-06T12:12:58;0.30;;;0.20;;
76814;SDS011;65768;49.906;19.384;2023-08-06T12:15:27;0.70;;;0.40;;
76814;SDS011;65768;49.906;19.384;2023-08-06T12:17:57;0.30;;;0.20;;
76814;SDS011;65768;49.906;19.384;2023-08-06T12:20:26;0.30;;;0.20;;
76814;SDS011;65768;49.906;19.384;2023-08-06T12:22:57;1.90;;;0.30;;
76814;SDS011;65768;49.906;19.384;2023-08-06T12:25:26;0.80;;;0.30;;
76814;SDS011;65768;49.906;19.384;2023-08-06T12:27:58;1.60;;;0.30;;
76814;SDS011;65768;49.906;19.384;2023-08-06T12:30:31;0.30;;;0.20;;
76814;SDS011;65768;49.906;19.384;2023-08-06T12:32:59;0.70;;;0.30;;
76814;SDS011;65768;49.906;19.384;2023-08-06T12:35:29;0.80;;;0.40;;
76814;SDS011;65768;49.906;19.384;2023-08-06T12:38:00;0.80;;;0.30;;
76814;SDS011;65768;49.906;19.384;2023-08-06T12:40:29;1.20;;;0.30;;
76814;SDS011;65768;49.906;19.384;2023-08-06T12:42:58;1.20;;;0.80;;
76814;SDS011;65768;49.906;19.384;2023-08-06T12:45:29;1.60;;;0.30;;
76814;SDS011;65768;49.906;19.384;2023-08-06T12:48:00;1.00;;;0.40;;
76814;SDS011;65768;49.906;19.384;2023-08-06T12:50:29;0.60;;;0.30;;
76814;SDS011;65768;49.906;19.384;2023-08-06T12:52:57;1.30;;;0.50;;
76814;SDS011;65768;49.906;19.384;2023-08-06T12:55:27;0.30;;;0.20;;
76814;SDS011;65768;49.906;19.384;2023-08-06T12:58:01;1.20;;;0.30;;
76814;SDS011;65768;49.906;19.384;2023-08-06T13:00:31;0.30;;;0.20;;
76814;SDS011;65768;49.906;19.384;2023-08-06T13:03:02;0.20;;;0.20;;
76814;SDS011;65768;49.906;19.384;2023-08-06T13:05:32;0.60;;;0.30;;
76814;SDS011;65768;49.906;19.384;2023-08-06T13:08:04;1.10;;;0.30;;
76814;SDS011;65768;49.906;19.384;2023-08-06T13:10:34;1.40;;;0.60;;
76814;SDS011;65768;49.906;19.384;2023-08-06T13:13:03;1.60;;;0.50;;
76814;SDS011;65768;49.906;19.384;2023-08-06T13:15:35;0.70;;;0.30;;
76814;SDS011;65768;49.906;19.384;2023-08-06T13:18:06;2.40;;;0.40;;
76814;SDS011;65768;49.906;19.384;2023-08-06T13:20:38;0.70;;;0.30;;
76814;SDS011;65768;49.906;19.384;2023-08-06T13:23:09;0.90;;;0.40;;
76814;SDS011;65768;49.906;19.384;2023-08-06T13:25:38;0.70;;;0.30;;
76814;SDS011;65768;49.906;19.384;2023-08-06T13:28:09;0.60;;;0.30;;
76814;SDS011;65768;49.906;19.384;2023-08-06T13:30:38;0.60;;;0.30;;
76814;SDS011;65768;49.906;19.384;2023-08-06T13:33:10;1.30;;;0.40;;
76814;SDS011;65768;49.906;19.384;2023-08-06T13:35:40;0.60;;;0.30;;
76814;SDS011;65768;49.906;19.384;2023-08-06T13:38:09;1.30;;;0.40;;
76814;SDS011;65768;49.906;19.384;2023-08-06T13:40:38;1.30;;;0.40;;
76814;SDS011;65768;49.906;19.384;2023-08-06T13:43:09;0.80;;;0.30;;
76814;SDS011;65768;49.906;19.384;2023-08-06T13:45:39;1.10;;;0.30;;
76814;SDS011;65768;49.906;19.384;2023-08-06T13:48:13;0.70;;;0.20;;
76814;SDS011;65768;49.906;19.384;2023-08-06T13:50:42;0.60;;;0.30;;
76814;SDS011;65768;49.906;19.384;2023-08-06T13:53:13;0.60;;;0.30;;
76814;SDS011;65768;49.906;19.384;2023-08-06T13:55:42;0.40;;;0.30;;
76814;SDS011;65768;49.906;19.384;2023-08-06T13:58:12;2.80;;;0.50;;
76814;SDS011;65768;49.906;19.384;2023-08-06T14:00:41;0.50;;;0.30;;
76814;SDS011;65768;49.906;19.384;2023-08-06T14:03:11;0.80;;;0.40;;
76814;SDS011;65768;49.906;19.384;2023-08-06T14:05:41;0.50;;;0.30;;
76814;SDS011;65768;49.906;19.384;2023-08-06T14:08:12;1.40;;;0.30;;
76814;SDS011;65768;49.906;19.384;2023-08-06T14:10:42;0.40;;;0.30;;
76814;SDS011;65768;49.906;19.384;2023-08-06T14:13:14;1.70;;;0.50;;
76814;SDS011;65768;49.906;19.384;2023-08-06T14:15:44;1.30;;;0.50;;
76814;SDS011;65768;49.906;19.384;2023-08-06T14:18:15;1.10;;;0.50;;
76814;SDS011;65768;49.906;19.384;2023-08-06T14:20:45;0.90;;;0.30;;
76814;SDS011;65768;49.906;19.384;2023-08-06T14:23:14;0.80;;;0.40;;
76814;SDS011;65768;49.906;19.384;2023-08-06T14:25:44;0.50;;;0.30;;
76814;SDS011;65768;49.906;19.384;2023-08-06T14:28:13;1.30;;;0.30;;
76814;SDS011;65768;49.906;19.384;2023-08-06T14:30:43;0.30;;;0.30;;
76814;SDS011;65768;49.906;19.384;2023-08-06T14:33:12;0.80;;;0.40;;
76814;SDS011;65768;49.906;19.384;2023-08-06T14:35:42;0.50;;;0.20;;
76814;SDS011;65768;49.906;19.384;2023-08-06T14:38:12;0.50;;;0.30;;
76814;SDS011;65768;49.906;19.384;2023-08-06T14:40:42;1.10;;;0.40;;
76814;SDS011;65768;49.906;19.384;2023-08-06T14:43:13;2.40;;;0.50;;
76814;SDS011;65768;49.906;19.384;2023-08-06T14:45:42;0.80;;;0.40;;
76814;SDS011;65768;49.906;19.384;2023-08-06T14:48:15;1.30;;;0.50;;
76814;SDS011;65768;49.906;19.384;2023-08-06T14:50:46;0.80;;;0.40;;
76814;SDS011;65768;49.906;19.384;2023-08-06T14:53:19;0.90;;;0.40;;
76814;SDS011;65768;49.906;19.384;2023-08-06T14:55:49;2.60;;;0.30;;
76814;SDS011;65768;49.906;19.384;2023-08-06T14:58:19;1.00;;;0.40;;
76814;SDS011;65768;49.906;19.384;2023-08-06T15:00:49;0.70;;;0.20;;
76814;SDS011;65768;49.906;19.384;2023-08-06T15:03:18;1.60;;;0.50;;
76814;SDS011;65768;49.906;19.384;2023-08-06T15:05:48;1.20;;;0.20;;
76814;SDS011;65768;49.906;19.384;2023-08-06T15:08:18;0.80;;;0.30;;
76814;SDS011;65768;49.906;19.384;2023-08-06T15:10:50;1.50;;;0.30;;
76814;SDS011;65768;49.906;19.384;2023-08-06T15:13:23;0.50;;;0.30;;
76814;SDS011;65768;49.906;19.384;2023-08-06T15:15:52;0.70;;;0.30;;
76814;SDS011;65768;49.906;19.384;2023-08-06T15:18:22;1.30;;;0.50;;